« 嵐まえ 福岡空港 2019/12/6 fri | トップページ | 美ら島エアーフェスタ2019 那覇空港 2019/12/7 sat »

2019/12/11

雨那覇 那覇空港 2019/12/6 fri

SKY507で一路那覇へ

201911206_roah_00ja73np

雲の上は、綺麗な青空 当たり前か・・

201911206_roah_01ja615j

JAL916 ROAH-RJTT JA615J B767-346ER

201911206_roah_02f4

酷い雨空の中に、F4を2機確認

ROAH 060730Z 03015KT 5000 RA FEW010 SCT015 OVC060 16/15 Q1019 RMK 2CU010 3CU015 8AS060 A3012

201911206_roah_03m5087

ウォッシュラックから戻って来るパパさん

201911206_roah_04m5087

雨でも怠り無くパトロール

201911206_roah_05m5087

5087 P-3C VP-5

201911206_roah_06ja06rk

JTA37 RJNK-ROAH JA06RK B737-8Q3

201911206_roah_07ja06rk

待ち人来たり・・ 到着ロビーへ向かいます

201911206_roah_08f2

ふと見ると、F2さんがドナドナされてきました。明日も雨だよなー。

|

« 嵐まえ 福岡空港 2019/12/6 fri | トップページ | 美ら島エアーフェスタ2019 那覇空港 2019/12/7 sat »

那覇空港」カテゴリの記事

コメント

コメントを書く



(ウェブ上には掲載しません)


コメントは記事投稿者が公開するまで表示されません。



« 嵐まえ 福岡空港 2019/12/6 fri | トップページ | 美ら島エアーフェスタ2019 那覇空港 2019/12/7 sat »